createdAt,value
2019-05-21T00:00:38.655Z,42.20
2019-05-21T00:03:11.585Z,39.80
2019-05-21T00:05:44.571Z,41.00
2019-05-21T00:08:17.674Z,40.20
2019-05-21T00:10:50.588Z,38.60
2019-05-21T00:13:23.541Z,38.60
2019-05-21T00:15:56.511Z,40.80
2019-05-21T00:18:29.492Z,41.00
2019-05-21T00:21:02.676Z,39.20
2019-05-21T00:23:35.566Z,42.20
2019-05-21T00:26:08.496Z,42.20
2019-05-21T00:28:39.960Z,41.60
2019-05-21T00:31:49.403Z,40.80
2019-05-21T00:34:58.811Z,39.20
2019-05-21T00:38:08.104Z,40.40
2019-05-21T00:41:17.088Z,40.80
2019-05-21T00:43:57.431Z,42.20
2019-05-21T00:46:30.361Z,42.60
2019-05-21T00:49:03.473Z,44.40
2019-05-21T00:51:36.435Z,24.00
2019-05-21T00:54:09.497Z,42.40
2019-05-21T00:56:42.429Z,41.00
2019-05-21T00:59:15.432Z,44.00
2019-05-21T01:01:48.512Z,42.80
2019-05-21T01:04:21.431Z,44.60
2019-05-21T01:06:54.422Z,41.00
2019-05-21T01:09:27.819Z,43.60
2019-05-21T01:12:01.146Z,44.40
2019-05-21T01:14:34.214Z,42.00
2019-05-21T01:17:07.201Z,38.00
2019-05-21T01:19:40.232Z,40.20
2019-05-21T01:22:13.133Z,37.60
2019-05-21T01:24:46.127Z,39.20
2019-05-21T01:27:19.379Z,39.60
2019-05-21T01:29:52.398Z,38.00
2019-05-21T01:32:25.442Z,36.40
2019-05-21T01:34:58.748Z,33.40
2019-05-21T01:37:31.634Z,35.60
2019-05-21T01:40:05.059Z,34.80
2019-05-21T01:42:38.498Z,40.80
2019-05-21T01:45:11.774Z,40.20
2019-05-21T01:47:44.657Z,39.40
2019-05-21T01:50:17.603Z,37.60
2019-05-21T01:52:50.559Z,38.60
2019-05-21T01:55:23.468Z,34.80
2019-05-21T01:57:56.376Z,36.00
2019-05-21T02:00:29.465Z,38.00
2019-05-21T02:03:02.378Z,39.00
2019-05-21T02:05:35.543Z,36.40
2019-05-21T02:08:08.577Z,29.20
2019-05-21T02:10:41.588Z,28.80
2019-05-21T02:13:14.511Z,33.20
2019-05-21T02:15:47.818Z,33.40
2019-05-21T02:18:20.837Z,34.20
2019-05-21T02:20:54.274Z,35.20
2019-05-21T02:23:27.279Z,31.60
2019-05-21T02:26:00.179Z,34.40
2019-05-21T02:28:33.201Z,32.60
2019-05-21T02:31:06.113Z,36.00
2019-05-21T02:33:39.376Z,34.20
2019-05-21T02:36:12.463Z,31.80
2019-05-21T02:38:45.758Z,31.60
2019-05-21T02:41:18.752Z,32.00
2019-05-21T02:43:51.770Z,33.00
2019-05-21T02:46:24.689Z,32.40
2019-05-21T02:48:57.626Z,29.00
2019-05-21T02:51:30.524Z,32.40
2019-05-21T02:54:03.585Z,31.20
2019-05-21T02:56:36.502Z,29.20
2019-05-21T02:59:09.425Z,30.60
2019-05-21T03:01:42.483Z,30.20
2019-05-21T03:04:15.412Z,29.40
2019-05-21T03:06:48.409Z,28.80
2019-05-21T03:09:21.493Z,30.00
2019-05-21T03:11:54.475Z,30.20
2019-05-21T03:14:27.418Z,32.40
2019-05-21T03:17:00.440Z,34.40
2019-05-21T03:19:33.487Z,31.80
2019-05-21T03:22:06.563Z,33.00
2019-05-21T03:24:39.668Z,33.40
2019-05-21T03:27:12.621Z,33.20
2019-05-21T03:29:45.854Z,32.60
2019-05-21T03:32:18.751Z,31.80
2019-05-21T03:34:51.672Z,35.20
2019-05-21T03:37:24.637Z,35.40
2019-05-21T03:39:57.860Z,33.40
2019-05-21T03:42:31.093Z,36.20
2019-05-21T03:45:07.906Z,33.20
2019-05-21T03:47:39.902Z,33.20
2019-05-21T03:50:13.080Z,36.80
2019-05-21T03:52:46.305Z,35.00
2019-05-21T03:55:19.727Z,38.00
2019-05-21T03:57:52.903Z,38.60
2019-05-21T04:00:25.967Z,32.80
2019-05-21T04:02:58.884Z,34.80
2019-05-21T04:05:31.896Z,35.60
2019-05-21T04:08:04.804Z,34.40
2019-05-21T04:10:37.897Z,34.20
2019-05-21T04:13:10.775Z,35.40
2019-05-21T04:15:43.882Z,35.40
2019-05-21T04:18:16.847Z,40.00
2019-05-21T04:20:49.886Z,39.60
2019-05-21T04:23:23.158Z,38.20
2019-05-21T04:25:56.417Z,36.80
2019-05-21T04:28:29.418Z,38.80
2019-05-21T04:31:02.384Z,38.60
2019-05-21T04:33:35.325Z,39.40
2019-05-21T04:36:10.144Z,37.00
2019-05-21T04:38:43.427Z,40.20
2019-05-21T04:41:16.653Z,39.00
2019-05-21T04:43:49.576Z,42.00
2019-05-21T04:46:22.598Z,42.40
2019-05-21T04:48:55.592Z,41.40
2019-05-21T04:51:28.592Z,40.80
2019-05-21T04:54:01.568Z,41.80
2019-05-21T04:56:34.749Z,41.60
2019-05-21T04:59:07.670Z,38.80
2019-05-21T05:01:40.991Z,42.00
2019-05-21T05:04:13.892Z,38.80
2019-05-21T05:06:46.944Z,43.00
2019-05-21T05:09:20.013Z,42.40
2019-05-21T05:11:53.025Z,40.40
2019-05-21T05:14:26.208Z,39.40
2019-05-21T05:16:59.118Z,37.40
2019-05-21T05:19:32.121Z,38.60
2019-05-21T05:22:05.066Z,36.00
2019-05-21T05:24:37.968Z,34.60
2019-05-21T05:27:11.021Z,37.20
2019-05-21T05:29:44.031Z,35.40
2019-05-21T05:32:17.084Z,36.80
2019-05-21T05:34:49.994Z,34.00
2019-05-21T05:37:23.004Z,31.80
2019-05-21T05:39:55.885Z,32.40
2019-05-21T05:42:28.870Z,30.40
2019-05-21T05:45:02.071Z,30.60
2019-05-21T05:47:35.281Z,32.60
2019-05-21T05:50:09.088Z,31.80
2019-05-21T05:52:42.301Z,32.40
2019-05-21T05:55:15.395Z,35.80
2019-05-21T05:57:48.609Z,36.00
2019-05-21T06:00:22.130Z,32.80
2019-05-21T06:02:55.053Z,38.00
2019-05-21T06:05:28.082Z,33.40
2019-05-21T06:08:01.172Z,33.20
2019-05-21T06:10:34.281Z,35.00
2019-05-21T06:13:07.271Z,36.20
2019-05-21T06:15:40.243Z,32.80
2019-05-21T06:18:13.156Z,34.60
2019-05-21T06:20:46.329Z,36.40
2019-05-21T06:23:19.227Z,35.80
2019-05-21T06:25:52.203Z,26.00
2019-05-21T06:28:25.086Z,36.60
2019-05-21T06:30:58.298Z,33.60
2019-05-21T06:33:31.197Z,35.00
2019-05-21T06:36:04.294Z,32.40
2019-05-21T06:38:37.289Z,33.20
2019-05-21T06:41:10.344Z,36.60
2019-05-21T06:43:43.254Z,33.20
2019-05-21T06:46:16.221Z,29.00
2019-05-21T06:48:49.164Z,30.20
2019-05-21T06:51:22.427Z,32.80
2019-05-21T06:53:55.403Z,28.60
2019-05-21T06:56:28.323Z,30.60
2019-05-21T06:59:01.708Z,29.40
2019-05-21T07:01:35.093Z,32.80
2019-05-21T07:04:08.019Z,31.80
2019-05-21T07:06:44.271Z,31.00
2019-05-21T07:09:15.758Z,26.60
2019-05-21T07:11:48.724Z,30.60
2019-05-21T07:14:21.639Z,22.20
2019-05-21T07:16:54.598Z,25.20
2019-05-21T07:19:27.590Z,27.80
2019-05-21T07:22:12.081Z,27.40
2019-05-21T07:24:35.916Z,24.20
2019-05-21T07:27:09.123Z,28.40
2019-05-21T07:29:42.033Z,26.80
2019-05-21T07:32:14.921Z,26.80
2019-05-21T07:34:47.980Z,22.80
2019-05-21T07:37:21.047Z,19.20
2019-05-21T07:39:53.961Z,24.80
2019-05-21T07:42:26.960Z,24.40
2019-05-21T07:44:59.864Z,22.20
2019-05-21T07:47:32.915Z,21.00
2019-05-21T07:50:06.966Z,23.00
2019-05-21T07:52:40.198Z,22.60
2019-05-21T07:55:13.229Z,24.60
2019-05-21T07:57:46.434Z,27.80
2019-05-21T08:00:20.429Z,51.20
2019-05-21T08:02:53.487Z,24.00
2019-05-21T08:05:26.551Z,24.60
2019-05-21T08:07:59.545Z,21.80
2019-05-21T08:10:32.758Z,23.00
2019-05-21T08:13:05.832Z,24.00
2019-05-21T08:15:39.117Z,23.20
2019-05-21T08:18:12.123Z,22.80
2019-05-21T08:20:45.209Z,23.00
2019-05-21T08:23:18.610Z,22.40
2019-05-21T08:25:51.508Z,25.00
2019-05-21T08:28:24.404Z,24.00
2019-05-21T08:30:57.311Z,20.40
2019-05-21T08:33:30.794Z,25.40
2019-05-21T08:36:04.350Z,23.20
2019-05-21T08:38:37.954Z,23.60
2019-05-21T08:41:10.985Z,24.20
2019-05-21T08:43:43.949Z,23.40
2019-05-21T08:46:16.941Z,23.00
2019-05-21T08:48:49.883Z,21.20
2019-05-21T08:51:23.085Z,26.40
2019-05-21T08:53:56.002Z,22.20
2019-05-21T08:56:28.906Z,18.80
2019-05-21T08:59:01.937Z,20.80
2019-05-21T09:01:34.915Z,21.40
2019-05-21T09:04:07.924Z,21.80
2019-05-21T09:06:40.887Z,22.40
2019-05-21T09:09:13.931Z,17.60
2019-05-21T09:11:47.190Z,19.40
2019-05-21T09:14:20.087Z,22.40
2019-05-21T09:16:53.047Z,23.20
2019-05-21T09:19:26.145Z,24.60
2019-05-21T09:21:59.091Z,23.00
2019-05-21T09:24:32.713Z,26.80
2019-05-21T09:27:05.730Z,23.80
2019-05-21T09:29:38.655Z,21.00
2019-05-21T09:32:11.579Z,20.40
2019-05-21T09:34:49.381Z,24.40
2019-05-21T09:37:20.475Z,22.00
2019-05-21T09:39:53.692Z,23.60
2019-05-21T09:42:26.599Z,23.00
2019-05-21T09:44:59.668Z,22.60
2019-05-21T09:47:32.703Z,25.20
2019-05-21T09:50:07.358Z,27.00
2019-05-21T09:52:40.318Z,34.80
2019-05-21T09:55:13.307Z,27.00
2019-05-21T09:57:46.685Z,28.60
2019-05-21T10:00:20.391Z,24.60
2019-05-21T10:02:53.286Z,25.60
2019-05-21T10:05:26.402Z,26.20
2019-05-21T10:07:59.497Z,23.80
2019-05-21T10:10:32.532Z,26.00
2019-05-21T10:13:05.568Z,27.40
2019-05-21T10:15:38.637Z,27.60
2019-05-21T10:18:11.959Z,29.40
2019-05-21T10:20:44.993Z,29.60
2019-05-21T10:23:17.959Z,25.20
2019-05-21T10:25:51.085Z,22.40
2019-05-21T10:28:23.994Z,25.20
2019-05-21T10:30:56.970Z,30.00
2019-05-21T10:33:29.927Z,28.20
2019-05-21T10:36:03.237Z,26.00
2019-05-21T10:38:36.246Z,29.00
2019-05-21T10:41:09.334Z,24.20
2019-05-21T10:43:42.411Z,23.80
2019-05-21T10:46:15.322Z,25.00
2019-05-21T10:48:48.639Z,23.80
2019-05-21T10:51:21.528Z,26.60
2019-05-21T10:53:54.876Z,29.60
2019-05-21T10:56:28.261Z,24.80
2019-05-21T10:59:01.265Z,25.60
2019-05-21T11:01:34.190Z,19.60
2019-05-21T11:04:07.132Z,24.80
2019-05-21T11:06:40.266Z,24.00
2019-05-21T11:09:13.484Z,23.20
2019-05-21T11:11:46.410Z,26.00
2019-05-21T11:14:19.738Z,24.40
2019-05-21T11:16:53.059Z,37.80
2019-05-21T11:19:26.038Z,24.00
2019-05-21T11:21:58.933Z,24.80
2019-05-21T11:24:31.905Z,25.80
2019-05-21T11:27:05.096Z,26.60
2019-05-21T11:29:37.998Z,26.60
2019-05-21T11:32:10.964Z,27.60
2019-05-21T11:34:44.164Z,29.40
2019-05-21T11:37:17.114Z,31.00
2019-05-21T11:39:50.104Z,29.20
2019-05-21T11:42:23.082Z,29.40
2019-05-21T11:44:56.083Z,28.60
2019-05-21T11:47:29.173Z,29.80
2019-05-21T11:50:02.296Z,31.80
2019-05-21T11:52:35.730Z,34.40
2019-05-21T11:55:09.028Z,29.20
2019-05-21T11:57:41.938Z,27.60
2019-05-21T12:00:15.495Z,31.80
2019-05-21T12:02:48.456Z,32.40
2019-05-21T12:05:21.507Z,31.20
2019-05-21T12:07:54.464Z,31.20
2019-05-21T12:10:27.598Z,31.20
2019-05-21T12:13:00.777Z,32.00
2019-05-21T12:15:33.706Z,31.20
2019-05-21T12:18:06.708Z,31.00
2019-05-21T12:20:39.633Z,29.00
2019-05-21T12:23:12.611Z,29.20
2019-05-21T12:25:45.611Z,27.60
2019-05-21T12:28:18.541Z,28.80
2019-05-21T12:30:51.770Z,28.80
2019-05-21T12:33:24.680Z,29.40
2019-05-21T12:35:57.767Z,31.40
2019-05-21T12:38:30.754Z,29.40
2019-05-21T12:41:03.831Z,31.60
2019-05-21T12:43:36.724Z,31.40
2019-05-21T12:46:10.855Z,33.20
2019-05-21T12:48:43.838Z,38.60
2019-05-21T12:51:17.116Z,31.40
2019-05-21T12:53:50.099Z,29.60
2019-05-21T12:56:23.010Z,30.40
2019-05-21T12:58:55.916Z,27.60
2019-05-21T13:01:29.482Z,29.00
2019-05-21T13:04:02.484Z,31.20
2019-05-21T13:06:35.428Z,24.60
2019-05-21T13:09:08.921Z,28.80
2019-05-21T13:11:41.924Z,29.00
2019-05-21T13:14:18.533Z,28.80
2019-05-21T13:16:49.906Z,31.60
2019-05-21T13:19:23.274Z,31.40
2019-05-21T13:21:56.433Z,30.80
2019-05-21T13:24:29.462Z,32.60
2019-05-21T13:27:02.360Z,30.80
2019-05-21T13:29:35.430Z,30.80
2019-05-21T13:32:08.406Z,29.00
2019-05-21T13:34:41.283Z,30.60
2019-05-21T13:37:14.192Z,31.20
2019-05-21T13:39:50.238Z,29.80
2019-05-21T13:42:22.032Z,29.00
2019-05-21T13:44:55.250Z,30.60
2019-05-21T13:47:28.086Z,30.60
2019-05-21T13:50:00.942Z,31.60
2019-05-21T13:52:33.883Z,30.20
2019-05-21T13:55:07.947Z,28.80
2019-05-21T13:57:41.066Z,30.60
2019-05-21T14:00:15.315Z,32.00
2019-05-21T14:02:48.729Z,24.80
2019-05-21T14:05:21.660Z,32.20
2019-05-21T14:07:54.505Z,31.80
2019-05-21T14:10:27.357Z,31.80
2019-05-21T14:13:00.574Z,32.00
2019-05-21T14:15:33.409Z,29.20
2019-05-21T14:18:06.416Z,30.40
2019-05-21T14:20:39.307Z,31.40
2019-05-21T14:23:12.151Z,30.20
2019-05-21T14:25:45.081Z,31.00
2019-05-21T14:28:17.920Z,31.80
2019-05-21T14:30:50.878Z,29.80
2019-05-21T14:33:23.787Z,28.00
2019-05-21T14:35:56.646Z,29.60
2019-05-21T14:38:29.852Z,28.60
2019-05-21T14:41:03.138Z,32.00
2019-05-21T14:43:36.149Z,30.20
2019-05-21T14:46:09.006Z,29.40
2019-05-21T14:48:41.849Z,27.00
2019-05-21T14:51:14.988Z,30.60
2019-05-21T14:53:47.860Z,27.60
2019-05-21T14:56:21.042Z,29.20
2019-05-21T14:58:53.941Z,30.40
2019-05-21T15:01:26.805Z,30.00
2019-05-21T15:03:59.708Z,30.60
2019-05-21T15:06:32.566Z,28.80
2019-05-21T15:09:05.681Z,31.60
2019-05-21T15:11:38.555Z,28.80
2019-05-21T15:14:11.413Z,31.40
2019-05-21T15:16:44.588Z,28.60
2019-05-21T15:19:17.526Z,28.40
2019-05-21T15:21:50.516Z,30.60
2019-05-21T15:24:23.358Z,28.60
2019-05-21T15:26:56.376Z,35.40
2019-05-21T15:29:29.233Z,32.60
2019-05-21T15:32:02.112Z,30.80
2019-05-21T15:34:34.956Z,28.80
2019-05-21T15:37:07.960Z,32.00
2019-05-21T15:39:40.867Z,30.60
2019-05-21T15:42:13.707Z,30.60
2019-05-21T15:44:46.561Z,29.20
2019-05-21T15:47:19.393Z,29.40
2019-05-21T15:49:52.481Z,31.60
2019-05-21T15:52:25.329Z,33.00
2019-05-21T15:54:58.271Z,30.60
2019-05-21T15:57:31.230Z,36.60
2019-05-21T16:00:05.749Z,33.60
2019-05-21T16:02:38.607Z,33.40
2019-05-21T16:05:12.310Z,37.40
2019-05-21T16:07:45.156Z,34.40
2019-05-21T16:10:18.172Z,32.20
2019-05-21T16:12:54.026Z,36.00
2019-05-21T16:15:25.703Z,35.80
2019-05-21T16:17:58.532Z,35.00
2019-05-21T16:20:31.462Z,34.20
2019-05-21T16:23:04.377Z,35.60
2019-05-21T16:25:37.234Z,35.20
2019-05-21T16:28:10.158Z,33.40
2019-05-21T16:30:43.231Z,33.40
2019-05-21T16:33:16.316Z,33.00
2019-05-21T16:35:49.483Z,33.20
2019-05-21T16:38:22.692Z,33.20
2019-05-21T16:40:55.630Z,32.00
2019-05-21T16:43:28.468Z,31.00
2019-05-21T16:46:01.395Z,30.60
2019-05-21T16:48:34.251Z,31.00
2019-05-21T16:51:07.208Z,34.20
2019-05-21T16:53:40.150Z,31.80
2019-05-21T16:56:13.252Z,32.00
2019-05-21T16:58:46.164Z,34.80
2019-05-21T17:01:19.008Z,37.40
2019-05-21T17:03:59.534Z,33.80
2019-05-21T17:06:26.567Z,32.60
2019-05-21T17:08:59.392Z,34.20
2019-05-21T17:11:32.319Z,34.00
2019-05-21T17:14:05.236Z,33.20
2019-05-21T17:16:38.085Z,31.00
2019-05-21T17:19:10.948Z,33.20
2019-05-21T17:21:43.811Z,30.40
2019-05-21T17:24:16.664Z,33.60
2019-05-21T17:26:49.512Z,31.60
2019-05-21T17:29:22.511Z,33.20
2019-05-21T17:31:55.339Z,31.80
2019-05-21T17:34:29.007Z,31.40
2019-05-21T17:37:01.855Z,31.40
2019-05-21T17:39:34.770Z,33.40
2019-05-21T17:42:15.579Z,34.60
2019-05-21T17:44:42.488Z,36.80
2019-05-21T17:47:15.773Z,38.80
2019-05-21T17:49:49.347Z,38.00
2019-05-21T17:52:22.896Z,50.20
2019-05-21T17:54:57.182Z,38.80
2019-05-21T17:57:30.347Z,40.20
2019-05-21T18:00:04.615Z,37.20
2019-05-21T18:02:37.666Z,38.40
2019-05-21T18:05:11.059Z,35.20
2019-05-21T18:07:44.333Z,35.40
2019-05-21T18:10:17.480Z,33.40
2019-05-21T18:12:50.440Z,39.40
2019-05-21T18:15:23.434Z,36.20
2019-05-21T18:17:56.718Z,35.00
2019-05-21T18:20:30.092Z,38.00
2019-05-21T18:23:03.174Z,38.40
2019-05-21T18:25:36.639Z,33.80
2019-05-21T18:28:09.657Z,37.20
2019-05-21T18:30:43.555Z,33.80
2019-05-21T18:33:17.142Z,36.40
2019-05-21T18:35:50.288Z,37.00
2019-05-21T18:38:23.371Z,32.40
2019-05-21T18:40:56.428Z,35.60
2019-05-21T18:43:29.723Z,34.20
2019-05-21T18:46:02.727Z,38.00
2019-05-21T18:48:35.654Z,36.00
2019-05-21T18:51:08.648Z,36.20
2019-05-21T18:53:41.540Z,33.20
2019-05-21T18:56:14.440Z,38.60
2019-05-21T18:58:47.407Z,37.20
2019-05-21T19:01:20.776Z,35.40
2019-05-21T19:03:53.719Z,36.20
2019-05-21T19:06:26.846Z,38.00
2019-05-21T19:08:59.779Z,40.40
2019-05-21T19:11:32.770Z,40.80
2019-05-21T19:14:06.090Z,38.80
2019-05-21T19:16:39.176Z,40.20
2019-05-21T19:19:12.274Z,39.60
2019-05-21T19:21:45.235Z,39.00
2019-05-21T19:24:18.241Z,42.40
2019-05-21T19:26:51.359Z,41.80
2019-05-21T19:29:24.375Z,47.00
2019-05-21T19:31:57.668Z,42.00
2019-05-21T19:34:30.770Z,42.20
2019-05-21T19:37:04.556Z,39.40
2019-05-21T19:39:37.886Z,39.20
2019-05-21T19:42:10.947Z,40.40
2019-05-21T19:44:44.055Z,39.00
2019-05-21T19:47:17.029Z,39.00
2019-05-21T19:49:50.049Z,36.20
2019-05-21T19:52:23.065Z,40.80
2019-05-21T19:54:56.012Z,37.40
2019-05-21T19:57:29.026Z,37.40
2019-05-21T20:00:02.191Z,38.40
2019-05-21T20:02:35.473Z,38.40
2019-05-21T20:05:09.196Z,38.20
2019-05-21T20:07:42.429Z,34.80
2019-05-21T20:10:16.558Z,40.00
2019-05-21T20:12:49.490Z,37.80
2019-05-21T20:15:22.739Z,37.00
2019-05-21T20:18:07.026Z,37.80
2019-05-21T20:20:31.569Z,36.80
2019-05-21T20:23:07.863Z,35.80
2019-05-21T20:25:55.443Z,34.80
2019-05-21T20:28:15.007Z,34.80
2019-05-21T20:30:48.651Z,37.60
2019-05-21T20:33:21.612Z,34.00
2019-05-21T20:35:54.659Z,70.60
2019-05-21T20:38:28.881Z,35.40
2019-05-21T20:41:02.581Z,36.40
2019-05-21T20:43:35.641Z,33.40
2019-05-21T20:46:10.095Z,37.40
2019-05-21T20:48:43.258Z,38.20
2019-05-21T20:51:16.874Z,33.20
2019-05-21T20:53:50.012Z,34.00
2019-05-21T20:56:22.945Z,34.60
2019-05-21T20:58:55.932Z,36.80
2019-05-21T21:01:28.918Z,36.20
2019-05-21T21:04:01.960Z,32.80
2019-05-21T21:06:36.153Z,35.00
2019-05-21T21:09:09.282Z,35.80
2019-05-21T21:11:42.654Z,36.40
2019-05-21T21:14:18.306Z,33.20
2019-05-21T21:16:50.513Z,36.20
2019-05-21T21:19:23.483Z,32.20
2019-05-21T21:21:56.591Z,33.80
2019-05-21T21:24:29.533Z,34.00
2019-05-21T21:27:02.715Z,32.60
2019-05-21T21:29:35.761Z,31.80
2019-05-21T21:32:09.011Z,34.20
2019-05-21T21:34:42.018Z,34.60
2019-05-21T21:37:15.866Z,36.00
2019-05-21T21:39:49.043Z,35.00
2019-05-21T21:42:22.413Z,31.60
2019-05-21T21:44:55.514Z,32.00
2019-05-21T21:47:28.811Z,33.80
2019-05-21T21:50:03.409Z,32.20
2019-05-21T21:52:36.524Z,32.80
2019-05-21T21:55:10.293Z,31.20
2019-05-21T21:57:43.319Z,33.80
2019-05-21T22:01:07.539Z,30.80
2019-05-21T22:03:42.260Z,34.20
2019-05-21T22:06:16.910Z,31.00
2019-05-21T22:08:50.239Z,30.40
2019-05-21T22:11:23.383Z,34.80
2019-05-21T22:13:56.622Z,31.20
2019-05-21T22:16:30.004Z,32.60
2019-05-21T22:19:03.058Z,29.40
2019-05-21T22:21:36.067Z,28.40
2019-05-21T22:24:09.453Z,32.00
2019-05-21T22:26:42.582Z,30.00
2019-05-21T22:29:15.876Z,27.00
2019-05-21T22:31:49.335Z,26.80
2019-05-21T22:34:22.421Z,25.20
2019-05-21T22:36:55.600Z,18.80
2019-05-21T22:39:29.069Z,20.20
2019-05-21T22:42:02.193Z,21.20
2019-05-21T22:44:35.805Z,17.80
2019-05-21T22:47:08.706Z,19.00
2019-05-21T22:49:41.640Z,20.40
2019-05-21T22:52:15.309Z,18.60
2019-05-21T22:54:48.279Z,14.60
2019-05-21T22:57:21.231Z,15.40
2019-05-21T22:59:54.217Z,12.40
2019-05-21T23:02:27.215Z,11.40
2019-05-21T23:05:00.268Z,11.00
2019-05-21T23:07:33.792Z,10.40
2019-05-21T23:10:06.981Z,11.00
2019-05-21T23:12:40.029Z,14.40
2019-05-21T23:15:24.422Z,11.20
2019-05-21T23:17:48.688Z,11.40
2019-05-21T23:20:22.363Z,10.80
2019-05-21T23:22:55.552Z,13.00
2019-05-21T23:25:28.613Z,13.00
2019-05-21T23:28:01.892Z,12.80
2019-05-21T23:30:35.035Z,13.00
2019-05-21T23:33:08.355Z,16.60
2019-05-21T23:35:41.360Z,13.60
2019-05-21T23:38:14.644Z,14.00
2019-05-21T23:40:48.454Z,13.80
2019-05-21T23:43:21.446Z,14.60
2019-05-21T23:45:54.502Z,10.00
2019-05-21T23:48:28.024Z,13.40
2019-05-21T23:51:01.256Z,15.60
2019-05-21T23:53:34.312Z,14.20
2019-05-21T23:56:07.587Z,13.40
2019-05-21T23:58:40.899Z,14.80
